sensor_id;sensor_type;location;lat;lon;timestamp;P1;durP1;ratioP1;P2;durP2;ratioP2
5295;SDS011;2670;42.720;23.336;2024-01-30T00:00:27;8.83;;;4.27;;
5295;SDS011;2670;42.720;23.336;2024-01-30T00:02:54;11.60;;;5.27;;
5295;SDS011;2670;42.720;23.336;2024-01-30T00:05:20;6.63;;;3.70;;
5295;SDS011;2670;42.720;23.336;2024-01-30T00:07:48;11.23;;;5.17;;
5295;SDS011;2670;42.720;23.336;2024-01-30T00:10:14;9.37;;;4.43;;
5295;SDS011;2670;42.720;23.336;2024-01-30T00:12:41;5.70;;;3.53;;
5295;SDS011;2670;42.720;23.336;2024-01-30T00:15:07;8.37;;;4.20;;
5295;SDS011;2670;42.720;23.336;2024-01-30T00:17:34;6.23;;;3.40;;
5295;SDS011;2670;42.720;23.336;2024-01-30T00:20:00;8.17;;;4.67;;
5295;SDS011;2670;42.720;23.336;2024-01-30T00:22:30;14.27;;;7.53;;
5295;SDS011;2670;42.720;23.336;2024-01-30T00:24:58;8.70;;;5.60;;
5295;SDS011;2670;42.720;23.336;2024-01-30T00:27:24;8.03;;;4.13;;
5295;SDS011;2670;42.720;23.336;2024-01-30T00:29:51;12.03;;;5.40;;
5295;SDS011;2670;42.720;23.336;2024-01-30T00:32:17;9.63;;;4.93;;
5295;SDS011;2670;42.720;23.336;2024-01-30T00:34:45;11.90;;;6.57;;
5295;SDS011;2670;42.720;23.336;2024-01-30T00:37:11;8.43;;;4.70;;
5295;SDS011;2670;42.720;23.336;2024-01-30T00:39:38;7.03;;;3.93;;
5295;SDS011;2670;42.720;23.336;2024-01-30T00:42:05;8.37;;;4.33;;
5295;SDS011;2670;42.720;23.336;2024-01-30T00:44:34;9.57;;;4.70;;
5295;SDS011;2670;42.720;23.336;2024-01-30T00:47:00;10.30;;;5.07;;
5295;SDS011;2670;42.720;23.336;2024-01-30T00:49:27;12.40;;;6.37;;
5295;SDS011;2670;42.720;23.336;2024-01-30T00:51:53;11.03;;;6.07;;
5295;SDS011;2670;42.720;23.336;2024-01-30T00:54:20;9.13;;;5.73;;
5295;SDS011;2670;42.720;23.336;2024-01-30T00:56:46;10.47;;;5.80;;
5295;SDS011;2670;42.720;23.336;2024-01-30T00:59:14;12.00;;;5.50;;
5295;SDS011;2670;42.720;23.336;2024-01-30T01:01:40;8.37;;;4.97;;
5295;SDS011;2670;42.720;23.336;2024-01-30T01:04:07;9.37;;;4.90;;
5295;SDS011;2670;42.720;23.336;2024-01-30T01:06:33;5.53;;;3.83;;
5295;SDS011;2670;42.720;23.336;2024-01-30T01:08:59;7.50;;;4.27;;
5295;SDS011;2670;42.720;23.336;2024-01-30T01:11:26;5.43;;;3.93;;
5295;SDS011;2670;42.720;23.336;2024-01-30T01:13:52;7.00;;;4.47;;
5295;SDS011;2670;42.720;23.336;2024-01-30T01:16:20;7.73;;;4.70;;
5295;SDS011;2670;42.720;23.336;2024-01-30T01:18:47;10.90;;;4.50;;
5295;SDS011;2670;42.720;23.336;2024-01-30T01:21:13;6.50;;;4.30;;
5295;SDS011;2670;42.720;23.336;2024-01-30T01:23:39;8.77;;;4.40;;
5295;SDS011;2670;42.720;23.336;2024-01-30T01:26:07;6.30;;;3.87;;
5295;SDS011;2670;42.720;23.336;2024-01-30T01:28:34;6.03;;;4.37;;
5295;SDS011;2670;42.720;23.336;2024-01-30T01:31:01;8.90;;;5.30;;
5295;SDS011;2670;42.720;23.336;2024-01-30T01:33:31;5.43;;;3.70;;
5295;SDS011;2670;42.720;23.336;2024-01-30T01:35:58;6.70;;;4.13;;
5295;SDS011;2670;42.720;23.336;2024-01-30T01:38:25;46.13;;;19.83;;
5295;SDS011;2670;42.720;23.336;2024-01-30T01:40:51;41.20;;;16.33;;
5295;SDS011;2670;42.720;23.336;2024-01-30T01:43:17;50.40;;;21.40;;
5295;SDS011;2670;42.720;23.336;2024-01-30T01:45:44;50.20;;;21.13;;
5295;SDS011;2670;42.720;23.336;2024-01-30T01:48:11;18.57;;;9.13;;
5295;SDS011;2670;42.720;23.336;2024-01-30T01:50:39;21.37;;;9.17;;
5295;SDS011;2670;42.720;23.336;2024-01-30T01:53:06;15.90;;;8.17;;
5295;SDS011;2670;42.720;23.336;2024-01-30T01:55:33;8.20;;;4.20;;
5295;SDS011;2670;42.720;23.336;2024-01-30T01:58:01;11.40;;;6.00;;
5295;SDS011;2670;42.720;23.336;2024-01-30T02:00:27;9.73;;;3.93;;
5295;SDS011;2670;42.720;23.336;2024-01-30T02:02:54;5.83;;;3.93;;
5295;SDS011;2670;42.720;23.336;2024-01-30T02:05:21;5.80;;;3.00;;
5295;SDS011;2670;42.720;23.336;2024-01-30T02:07:51;4.97;;;3.33;;
5295;SDS011;2670;42.720;23.336;2024-01-30T02:10:18;7.30;;;4.40;;
5295;SDS011;2670;42.720;23.336;2024-01-30T02:12:44;8.30;;;4.17;;
5295;SDS011;2670;42.720;23.336;2024-01-30T02:15:13;8.87;;;4.50;;
5295;SDS011;2670;42.720;23.336;2024-01-30T02:17:39;15.73;;;5.73;;
5295;SDS011;2670;42.720;23.336;2024-01-30T02:20:06;10.70;;;4.87;;
5295;SDS011;2670;42.720;23.336;2024-01-30T02:22:34;9.00;;;5.00;;
5295;SDS011;2670;42.720;23.336;2024-01-30T02:25:02;13.70;;;4.43;;
5295;SDS011;2670;42.720;23.336;2024-01-30T02:27:28;10.30;;;5.03;;
5295;SDS011;2670;42.720;23.336;2024-01-30T02:29:55;6.27;;;3.47;;
5295;SDS011;2670;42.720;23.336;2024-01-30T02:32:21;10.53;;;3.83;;
5295;SDS011;2670;42.720;23.336;2024-01-30T02:34:48;6.30;;;4.07;;
5295;SDS011;2670;42.720;23.336;2024-01-30T02:37:14;8.83;;;4.10;;
5295;SDS011;2670;42.720;23.336;2024-01-30T02:39:44;6.80;;;3.80;;
5295;SDS011;2670;42.720;23.336;2024-01-30T02:42:10;8.67;;;4.10;;
5295;SDS011;2670;42.720;23.336;2024-01-30T02:44:36;13.87;;;5.33;;
5295;SDS011;2670;42.720;23.336;2024-01-30T02:47:02;14.40;;;6.10;;
5295;SDS011;2670;42.720;23.336;2024-01-30T02:49:29;18.00;;;7.93;;
5295;SDS011;2670;42.720;23.336;2024-01-30T02:51:55;21.83;;;8.10;;
5295;SDS011;2670;42.720;23.336;2024-01-30T02:54:22;7.03;;;4.60;;
5295;SDS011;2670;42.720;23.336;2024-01-30T02:56:50;10.03;;;4.93;;
5295;SDS011;2670;42.720;23.336;2024-01-30T02:59:16;11.50;;;5.37;;
5295;SDS011;2670;42.720;23.336;2024-01-30T03:01:43;6.47;;;3.83;;
5295;SDS011;2670;42.720;23.336;2024-01-30T03:04:10;7.43;;;4.33;;
5295;SDS011;2670;42.720;23.336;2024-01-30T03:06:37;7.50;;;3.70;;
5295;SDS011;2670;42.720;23.336;2024-01-30T03:09:03;7.23;;;3.80;;
5295;SDS011;2670;42.720;23.336;2024-01-30T03:11:30;13.87;;;6.40;;
5295;SDS011;2670;42.720;23.336;2024-01-30T03:13:57;13.10;;;5.33;;
5295;SDS011;2670;42.720;23.336;2024-01-30T03:16:24;5.23;;;3.97;;
5295;SDS011;2670;42.720;23.336;2024-01-30T03:18:50;5.70;;;3.80;;
5295;SDS011;2670;42.720;23.336;2024-01-30T03:21:16;7.27;;;4.30;;
5295;SDS011;2670;42.720;23.336;2024-01-30T03:23:43;11.00;;;4.97;;
5295;SDS011;2670;42.720;23.336;2024-01-30T03:26:09;7.43;;;4.70;;
5295;SDS011;2670;42.720;23.336;2024-01-30T03:28:37;11.00;;;5.00;;
5295;SDS011;2670;42.720;23.336;2024-01-30T03:31:05;9.43;;;4.80;;
5295;SDS011;2670;42.720;23.336;2024-01-30T03:33:32;8.53;;;4.53;;
5295;SDS011;2670;42.720;23.336;2024-01-30T03:36:02;9.53;;;5.00;;
5295;SDS011;2670;42.720;23.336;2024-01-30T03:38:29;9.20;;;4.63;;
5295;SDS011;2670;42.720;23.336;2024-01-30T03:40:57;8.23;;;4.30;;
5295;SDS011;2670;42.720;23.336;2024-01-30T03:43:24;5.17;;;3.30;;
5295;SDS011;2670;42.720;23.336;2024-01-30T03:45:50;7.60;;;3.80;;
5295;SDS011;2670;42.720;23.336;2024-01-30T03:48:18;10.03;;;4.27;;
5295;SDS011;2670;42.720;23.336;2024-01-30T03:50:45;9.77;;;5.27;;
5295;SDS011;2670;42.720;23.336;2024-01-30T03:53:11;11.67;;;5.13;;
5295;SDS011;2670;42.720;23.336;2024-01-30T03:55:38;9.30;;;4.40;;
5295;SDS011;2670;42.720;23.336;2024-01-30T03:58:04;9.60;;;4.73;;
5295;SDS011;2670;42.720;23.336;2024-01-30T04:00:31;8.93;;;4.77;;
5295;SDS011;2670;42.720;23.336;2024-01-30T04:02:57;11.77;;;4.33;;
5295;SDS011;2670;42.720;23.336;2024-01-30T04:05:25;19.07;;;7.20;;
5295;SDS011;2670;42.720;23.336;2024-01-30T04:07:52;16.03;;;5.67;;
5295;SDS011;2670;42.720;23.336;2024-01-30T04:10:18;17.10;;;6.27;;
5295;SDS011;2670;42.720;23.336;2024-01-30T04:12:44;12.93;;;6.70;;
5295;SDS011;2670;42.720;23.336;2024-01-30T04:15:11;11.10;;;5.20;;
5295;SDS011;2670;42.720;23.336;2024-01-30T04:17:38;16.03;;;4.70;;
5295;SDS011;2670;42.720;23.336;2024-01-30T04:20:05;14.60;;;6.60;;
5295;SDS011;2670;42.720;23.336;2024-01-30T04:22:33;20.47;;;9.70;;
5295;SDS011;2670;42.720;23.336;2024-01-30T04:24:59;15.63;;;6.17;;
5295;SDS011;2670;42.720;23.336;2024-01-30T04:27:26;10.80;;;5.43;;
5295;SDS011;2670;42.720;23.336;2024-01-30T04:29:52;8.77;;;4.10;;
5295;SDS011;2670;42.720;23.336;2024-01-30T04:32:19;22.73;;;9.27;;
5295;SDS011;2670;42.720;23.336;2024-01-30T04:34:45;13.93;;;6.20;;
5295;SDS011;2670;42.720;23.336;2024-01-30T04:37:12;16.60;;;6.90;;
5295;SDS011;2670;42.720;23.336;2024-01-30T04:39:40;16.23;;;8.37;;
5295;SDS011;2670;42.720;23.336;2024-01-30T04:42:06;14.63;;;6.60;;
5295;SDS011;2670;42.720;23.336;2024-01-30T04:44:33;21.23;;;8.13;;
5295;SDS011;2670;42.720;23.336;2024-01-30T04:46:59;12.20;;;5.07;;
5295;SDS011;2670;42.720;23.336;2024-01-30T04:49:26;15.30;;;6.20;;
5295;SDS011;2670;42.720;23.336;2024-01-30T04:51:53;10.20;;;5.57;;
5295;SDS011;2670;42.720;23.336;2024-01-30T04:54:19;24.43;;;8.63;;
5295;SDS011;2670;42.720;23.336;2024-01-30T04:56:47;23.47;;;10.07;;
5295;SDS011;2670;42.720;23.336;2024-01-30T04:59:13;21.23;;;8.83;;
5295;SDS011;2670;42.720;23.336;2024-01-30T05:01:40;18.10;;;8.67;;
5295;SDS011;2670;42.720;23.336;2024-01-30T05:04:07;23.23;;;8.50;;
5295;SDS011;2670;42.720;23.336;2024-01-30T05:06:33;19.50;;;9.83;;
5295;SDS011;2670;42.720;23.336;2024-01-30T05:09:00;14.87;;;7.13;;
5295;SDS011;2670;42.720;23.336;2024-01-30T05:11:26;18.57;;;11.70;;
5295;SDS011;2670;42.720;23.336;2024-01-30T05:13:54;14.47;;;8.87;;
5295;SDS011;2670;42.720;23.336;2024-01-30T05:16:21;8.87;;;5.07;;
5295;SDS011;2670;42.720;23.336;2024-01-30T05:18:47;17.90;;;5.57;;
5295;SDS011;2670;42.720;23.336;2024-01-30T05:21:14;11.60;;;5.73;;
5295;SDS011;2670;42.720;23.336;2024-01-30T05:23:40;16.40;;;8.13;;
5295;SDS011;2670;42.720;23.336;2024-01-30T05:26:07;23.03;;;10.60;;
5295;SDS011;2670;42.720;23.336;2024-01-30T05:28:33;17.20;;;7.77;;
5295;SDS011;2670;42.720;23.336;2024-01-30T05:31:01;11.10;;;5.90;;
5295;SDS011;2670;42.720;23.336;2024-01-30T05:33:28;13.90;;;5.70;;
5295;SDS011;2670;42.720;23.336;2024-01-30T05:35:54;14.60;;;5.83;;
5295;SDS011;2670;42.720;23.336;2024-01-30T05:38:21;14.47;;;7.00;;
5295;SDS011;2670;42.720;23.336;2024-01-30T05:40:47;74.60;;;33.83;;
5295;SDS011;2670;42.720;23.336;2024-01-30T05:43:14;25.03;;;8.00;;
5295;SDS011;2670;42.720;23.336;2024-01-30T05:45:40;27.90;;;12.33;;
5295;SDS011;2670;42.720;23.336;2024-01-30T05:48:08;31.20;;;9.33;;
5295;SDS011;2670;42.720;23.336;2024-01-30T05:50:35;16.27;;;7.17;;
5295;SDS011;2670;42.720;23.336;2024-01-30T05:53:01;14.70;;;6.60;;
5295;SDS011;2670;42.720;23.336;2024-01-30T05:55:28;9.43;;;5.27;;
5295;SDS011;2670;42.720;23.336;2024-01-30T05:57:54;11.30;;;5.27;;
5295;SDS011;2670;42.720;23.336;2024-01-30T06:00:21;20.23;;;8.33;;
5295;SDS011;2670;42.720;23.336;2024-01-30T06:02:47;17.93;;;7.43;;
5295;SDS011;2670;42.720;23.336;2024-01-30T06:05:15;19.23;;;6.60;;
5295;SDS011;2670;42.720;23.336;2024-01-30T06:07:42;25.40;;;9.23;;
5295;SDS011;2670;42.720;23.336;2024-01-30T06:10:08;37.03;;;12.20;;
5295;SDS011;2670;42.720;23.336;2024-01-30T06:12:35;33.27;;;12.70;;
5295;SDS011;2670;42.720;23.336;2024-01-30T06:15:01;25.07;;;8.73;;
5295;SDS011;2670;42.720;23.336;2024-01-30T06:17:28;21.87;;;8.70;;
5295;SDS011;2670;42.720;23.336;2024-01-30T06:19:54;21.43;;;7.70;;
5295;SDS011;2670;42.720;23.336;2024-01-30T06:22:22;16.67;;;7.70;;
5295;SDS011;2670;42.720;23.336;2024-01-30T06:24:49;12.00;;;5.77;;
5295;SDS011;2670;42.720;23.336;2024-01-30T06:27:15;16.93;;;7.00;;
5295;SDS011;2670;42.720;23.336;2024-01-30T06:29:42;13.00;;;5.93;;
5295;SDS011;2670;42.720;23.336;2024-01-30T06:32:09;17.77;;;6.93;;
5295;SDS011;2670;42.720;23.336;2024-01-30T06:34:36;14.07;;;6.67;;
5295;SDS011;2670;42.720;23.336;2024-01-30T06:37:04;15.43;;;6.23;;
5295;SDS011;2670;42.720;23.336;2024-01-30T06:39:31;9.30;;;5.27;;
5295;SDS011;2670;42.720;23.336;2024-01-30T06:41:58;21.90;;;5.93;;
5295;SDS011;2670;42.720;23.336;2024-01-30T06:44:24;8.90;;;4.70;;
5295;SDS011;2670;42.720;23.336;2024-01-30T06:46:51;16.00;;;6.83;;
5295;SDS011;2670;42.720;23.336;2024-01-30T06:49:17;17.57;;;7.60;;
5295;SDS011;2670;42.720;23.336;2024-01-30T06:51:44;16.77;;;8.90;;
5295;SDS011;2670;42.720;23.336;2024-01-30T06:54:10;17.57;;;8.87;;
5295;SDS011;2670;42.720;23.336;2024-01-30T06:56:38;28.87;;;10.93;;
5295;SDS011;2670;42.720;23.336;2024-01-30T06:59:05;17.30;;;8.77;;
5295;SDS011;2670;42.720;23.336;2024-01-30T07:01:31;12.90;;;5.33;;
5295;SDS011;2670;42.720;23.336;2024-01-30T07:03:58;16.53;;;5.07;;
5295;SDS011;2670;42.720;23.336;2024-01-30T07:06:24;11.30;;;5.33;;
5295;SDS011;2670;42.720;23.336;2024-01-30T07:08:51;9.67;;;4.47;;
5295;SDS011;2670;42.720;23.336;2024-01-30T07:11:20;6.10;;;3.80;;
5295;SDS011;2670;42.720;23.336;2024-01-30T07:13:50;9.60;;;4.07;;
5295;SDS011;2670;42.720;23.336;2024-01-30T07:16:17;3.80;;;3.20;;
5295;SDS011;2670;42.720;23.336;2024-01-30T07:18:43;5.43;;;3.37;;
5295;SDS011;2670;42.720;23.336;2024-01-30T07:21:09;11.17;;;4.30;;
5295;SDS011;2670;42.720;23.336;2024-01-30T07:23:36;12.53;;;4.67;;
5295;SDS011;2670;42.720;23.336;2024-01-30T07:26:04;8.33;;;4.33;;
5295;SDS011;2670;42.720;23.336;2024-01-30T07:28:30;5.80;;;3.80;;
5295;SDS011;2670;42.720;23.336;2024-01-30T07:30:58;5.00;;;2.80;;
5295;SDS011;2670;42.720;23.336;2024-01-30T07:33:24;8.03;;;3.40;;
5295;SDS011;2670;42.720;23.336;2024-01-30T07:35:51;5.33;;;3.10;;
5295;SDS011;2670;42.720;23.336;2024-01-30T07:38:18;18.97;;;6.50;;
5295;SDS011;2670;42.720;23.336;2024-01-30T07:40:44;19.40;;;5.53;;
5295;SDS011;2670;42.720;23.336;2024-01-30T07:43:11;9.80;;;5.43;;
5295;SDS011;2670;42.720;23.336;2024-01-30T07:45:37;9.17;;;5.30;;
5295;SDS011;2670;42.720;23.336;2024-01-30T07:48:06;7.80;;;4.67;;
5295;SDS011;2670;42.720;23.336;2024-01-30T07:50:32;5.57;;;3.70;;
5295;SDS011;2670;42.720;23.336;2024-01-30T07:52:59;15.83;;;4.33;;
5295;SDS011;2670;42.720;23.336;2024-01-30T07:55:25;4.23;;;2.67;;
5295;SDS011;2670;42.720;23.336;2024-01-30T07:57:53;5.63;;;3.00;;
5295;SDS011;2670;42.720;23.336;2024-01-30T08:00:20;9.50;;;4.73;;
5295;SDS011;2670;42.720;23.336;2024-01-30T08:02:47;8.47;;;4.23;;
5295;SDS011;2670;42.720;23.336;2024-01-30T08:05:15;13.67;;;4.87;;
5295;SDS011;2670;42.720;23.336;2024-01-30T08:07:41;9.60;;;4.47;;
5295;SDS011;2670;42.720;23.336;2024-01-30T08:10:08;4.00;;;2.90;;
5295;SDS011;2670;42.720;23.336;2024-01-30T08:12:34;3.27;;;2.70;;
5295;SDS011;2670;42.720;23.336;2024-01-30T08:15:01;12.10;;;5.10;;
5295;SDS011;2670;42.720;23.336;2024-01-30T08:17:28;6.73;;;2.87;;
5295;SDS011;2670;42.720;23.336;2024-01-30T08:19:54;7.20;;;3.93;;
5295;SDS011;2670;42.720;23.336;2024-01-30T08:22:22;10.53;;;5.37;;
5295;SDS011;2670;42.720;23.336;2024-01-30T08:24:49;17.57;;;7.27;;
5295;SDS011;2670;42.720;23.336;2024-01-30T08:27:15;7.47;;;4.90;;
5295;SDS011;2670;42.720;23.336;2024-01-30T08:29:42;6.17;;;4.00;;
5295;SDS011;2670;42.720;23.336;2024-01-30T08:32:08;10.17;;;4.73;;
5295;SDS011;2670;42.720;23.336;2024-01-30T08:34:35;4.47;;;3.37;;
5295;SDS011;2670;42.720;23.336;2024-01-30T08:37:01;7.73;;;4.50;;
5295;SDS011;2670;42.720;23.336;2024-01-30T08:39:29;14.97;;;7.60;;
5295;SDS011;2670;42.720;23.336;2024-01-30T08:41:56;9.63;;;4.10;;
5295;SDS011;2670;42.720;23.336;2024-01-30T08:44:23;8.10;;;3.90;;
5295;SDS011;2670;42.720;23.336;2024-01-30T08:46:49;8.30;;;4.63;;
5295;SDS011;2670;42.720;23.336;2024-01-30T08:49:16;5.67;;;3.87;;
5295;SDS011;2670;42.720;23.336;2024-01-30T08:51:42;3.23;;;2.10;;
5295;SDS011;2670;42.720;23.336;2024-01-30T08:54:09;4.97;;;3.50;;
5295;SDS011;2670;42.720;23.336;2024-01-30T08:56:37;6.43;;;3.73;;
5295;SDS011;2670;42.720;23.336;2024-01-30T08:59:03;4.37;;;2.10;;
5295;SDS011;2670;42.720;23.336;2024-01-30T09:01:30;4.43;;;2.97;;
5295;SDS011;2670;42.720;23.336;2024-01-30T09:03:56;4.97;;;3.03;;
5295;SDS011;2670;42.720;23.336;2024-01-30T09:06:23;7.60;;;4.77;;
5295;SDS011;2670;42.720;23.336;2024-01-30T09:08:51;9.83;;;4.90;;
5295;SDS011;2670;42.720;23.336;2024-01-30T09:11:18;8.30;;;4.87;;
5295;SDS011;2670;42.720;23.336;2024-01-30T09:13:46;8.03;;;4.40;;
5295;SDS011;2670;42.720;23.336;2024-01-30T09:16:12;5.97;;;3.50;;
5295;SDS011;2670;42.720;23.336;2024-01-30T09:18:39;6.30;;;3.90;;
5295;SDS011;2670;42.720;23.336;2024-01-30T09:21:05;13.30;;;4.50;;
5295;SDS011;2670;42.720;23.336;2024-01-30T09:23:32;5.57;;;3.57;;
5295;SDS011;2670;42.720;23.336;2024-01-30T09:25:59;5.33;;;3.57;;
5295;SDS011;2670;42.720;23.336;2024-01-30T09:28:25;6.20;;;3.97;;
5295;SDS011;2670;42.720;23.336;2024-01-30T09:30:53;6.73;;;3.93;;
5295;SDS011;2670;42.720;23.336;2024-01-30T09:33:20;3.83;;;2.40;;
5295;SDS011;2670;42.720;23.336;2024-01-30T09:35:46;7.30;;;4.80;;
5295;SDS011;2670;42.720;23.336;2024-01-30T09:38:13;6.00;;;3.00;;
5295;SDS011;2670;42.720;23.336;2024-01-30T09:40:39;5.30;;;3.30;;
5295;SDS011;2670;42.720;23.336;2024-01-30T09:43:07;5.40;;;3.57;;
5295;SDS011;2670;42.720;23.336;2024-01-30T09:45:33;4.03;;;2.53;;
5295;SDS011;2670;42.720;23.336;2024-01-30T09:48:02;4.47;;;2.37;;
5295;SDS011;2670;42.720;23.336;2024-01-30T09:50:29;10.73;;;5.10;;
5295;SDS011;2670;42.720;23.336;2024-01-30T09:52:56;3.70;;;2.63;;
5295;SDS011;2670;42.720;23.336;2024-01-30T09:55:24;4.40;;;3.10;;
5295;SDS011;2670;42.720;23.336;2024-01-30T09:57:50;3.80;;;2.30;;
5295;SDS011;2670;42.720;23.336;2024-01-30T10:00:17;2.47;;;1.67;;
5295;SDS011;2670;42.720;23.336;2024-01-30T10:02:44;4.60;;;2.63;;
5295;SDS011;2670;42.720;23.336;2024-01-30T10:05:13;3.10;;;2.07;;
5295;SDS011;2670;42.720;23.336;2024-01-30T10:07:49;3.10;;;2.37;;
5295;SDS011;2670;42.720;23.336;2024-01-30T10:10:16;4.77;;;2.80;;
5295;SDS011;2670;42.720;23.336;2024-01-30T10:12:42;3.03;;;2.60;;
5295;SDS011;2670;42.720;23.336;2024-01-30T10:15:09;3.77;;;2.60;;
5295;SDS011;2670;42.720;23.336;2024-01-30T10:17:37;4.37;;;2.50;;
5295;SDS011;2670;42.720;23.336;2024-01-30T10:20:04;4.97;;;3.30;;
5295;SDS011;2670;42.720;23.336;2024-01-30T10:22:32;7.20;;;3.77;;
5295;SDS011;2670;42.720;23.336;2024-01-30T10:24:59;2.07;;;1.90;;
5295;SDS011;2670;42.720;23.336;2024-01-30T10:27:26;4.57;;;2.93;;
5295;SDS011;2670;42.720;23.336;2024-01-30T10:29:54;8.40;;;4.03;;
5295;SDS011;2670;42.720;23.336;2024-01-30T10:32:21;5.67;;;3.50;;
5295;SDS011;2670;42.720;23.336;2024-01-30T10:34:47;3.17;;;2.57;;
5295;SDS011;2670;42.720;23.336;2024-01-30T10:37:14;2.70;;;2.00;;
5295;SDS011;2670;42.720;23.336;2024-01-30T10:39:43;3.70;;;2.63;;
5295;SDS011;2670;42.720;23.336;2024-01-30T10:42:11;4.73;;;3.07;;
5295;SDS011;2670;42.720;23.336;2024-01-30T10:44:42;4.70;;;3.00;;
5295;SDS011;2670;42.720;23.336;2024-01-30T10:47:11;3.90;;;2.27;;
5295;SDS011;2670;42.720;23.336;2024-01-30T10:49:39;5.90;;;3.23;;
5295;SDS011;2670;42.720;23.336;2024-01-30T10:52:05;5.80;;;3.50;;
5295;SDS011;2670;42.720;23.336;2024-01-30T10:54:32;11.10;;;3.93;;
5295;SDS011;2670;42.720;23.336;2024-01-30T10:57:01;1.90;;;1.53;;
5295;SDS011;2670;42.720;23.336;2024-01-30T10:59:29;3.80;;;1.87;;
5295;SDS011;2670;42.720;23.336;2024-01-30T11:01:57;2.20;;;2.00;;
5295;SDS011;2670;42.720;23.336;2024-01-30T11:04:24;2.73;;;2.50;;
5295;SDS011;2670;42.720;23.336;2024-01-30T11:06:51;7.87;;;4.13;;
5295;SDS011;2670;42.720;23.336;2024-01-30T11:09:17;4.73;;;2.60;;
5295;SDS011;2670;42.720;23.336;2024-01-30T11:11:48;6.90;;;4.33;;
5295;SDS011;2670;42.720;23.336;2024-01-30T11:14:16;7.83;;;3.90;;
5295;SDS011;2670;42.720;23.336;2024-01-30T11:16:43;5.63;;;2.57;;
5295;SDS011;2670;42.720;23.336;2024-01-30T11:19:10;6.60;;;3.50;;
5295;SDS011;2670;42.720;23.336;2024-01-30T11:21:40;6.00;;;3.60;;
5295;SDS011;2670;42.720;23.336;2024-01-30T11:24:07;7.67;;;3.73;;
5295;SDS011;2670;42.720;23.336;2024-01-30T11:26:34;4.93;;;3.13;;
5295;SDS011;2670;42.720;23.336;2024-01-30T11:29:03;8.77;;;4.43;;
5295;SDS011;2670;42.720;23.336;2024-01-30T11:31:31;4.23;;;2.53;;
5295;SDS011;2670;42.720;23.336;2024-01-30T11:33:57;4.67;;;2.40;;
5295;SDS011;2670;42.720;23.336;2024-01-30T11:36:25;6.60;;;3.73;;
5295;SDS011;2670;42.720;23.336;2024-01-30T11:38:52;7.63;;;3.67;;
5295;SDS011;2670;42.720;23.336;2024-01-30T11:41:18;5.50;;;2.83;;
5295;SDS011;2670;42.720;23.336;2024-01-30T11:43:51;12.10;;;3.50;;
5295;SDS011;2670;42.720;23.336;2024-01-30T11:46:17;7.00;;;2.90;;
5295;SDS011;2670;42.720;23.336;2024-01-30T11:48:45;5.67;;;2.50;;
5295;SDS011;2670;42.720;23.336;2024-01-30T11:51:12;5.47;;;3.03;;
5295;SDS011;2670;42.720;23.336;2024-01-30T11:53:39;6.10;;;3.17;;
5295;SDS011;2670;42.720;23.336;2024-01-30T11:56:06;4.90;;;2.73;;
5295;SDS011;2670;42.720;23.336;2024-01-30T11:58:33;3.07;;;2.47;;
5295;SDS011;2670;42.720;23.336;2024-01-30T12:00:59;5.97;;;2.90;;
5295;SDS011;2670;42.720;23.336;2024-01-30T12:03:26;8.00;;;2.93;;
5295;SDS011;2670;42.720;23.336;2024-01-30T12:05:57;4.83;;;3.50;;
5295;SDS011;2670;42.720;23.336;2024-01-30T12:08:24;5.80;;;3.03;;
5295;SDS011;2670;42.720;23.336;2024-01-30T12:10:55;8.63;;;4.00;;
5295;SDS011;2670;42.720;23.336;2024-01-30T12:13:21;16.13;;;2.30;;
5295;SDS011;2670;42.720;23.336;2024-01-30T12:15:48;4.63;;;2.80;;
5295;SDS011;2670;42.720;23.336;2024-01-30T12:18:18;5.70;;;2.77;;
5295;SDS011;2670;42.720;23.336;2024-01-30T12:20:44;4.30;;;2.93;;
5295;SDS011;2670;42.720;23.336;2024-01-30T12:23:13;9.20;;;4.13;;
5295;SDS011;2670;42.720;23.336;2024-01-30T12:25:39;6.37;;;3.27;;
5295;SDS011;2670;42.720;23.336;2024-01-30T12:28:06;4.10;;;3.00;;
5295;SDS011;2670;42.720;23.336;2024-01-30T12:30:32;4.20;;;2.63;;
5295;SDS011;2670;42.720;23.336;2024-01-30T12:33:01;6.50;;;3.53;;
5295;SDS011;2670;42.720;23.336;2024-01-30T12:35:29;16.23;;;6.50;;
5295;SDS011;2670;42.720;23.336;2024-01-30T12:37:56;6.90;;;3.83;;
5295;SDS011;2670;42.720;23.336;2024-01-30T12:40:24;6.73;;;3.77;;
5295;SDS011;2670;42.720;23.336;2024-01-30T12:42:51;8.07;;;4.73;;
5295;SDS011;2670;42.720;23.336;2024-01-30T12:45:18;5.40;;;3.30;;
5295;SDS011;2670;42.720;23.336;2024-01-30T12:47:47;6.53;;;3.80;;
5295;SDS011;2670;42.720;23.336;2024-01-30T12:50:14;11.53;;;3.50;;
5295;SDS011;2670;42.720;23.336;2024-01-30T12:52:42;8.53;;;4.50;;
5295;SDS011;2670;42.720;23.336;2024-01-30T12:55:09;6.03;;;3.07;;
5295;SDS011;2670;42.720;23.336;2024-01-30T12:57:37;2.97;;;2.33;;
5295;SDS011;2670;42.720;23.336;2024-01-30T13:00:05;5.33;;;3.60;;
5295;SDS011;2670;42.720;23.336;2024-01-30T13:02:33;8.00;;;4.03;;
5295;SDS011;2670;42.720;23.336;2024-01-30T13:05:02;10.63;;;5.00;;
5295;SDS011;2670;42.720;23.336;2024-01-30T13:07:28;5.97;;;3.90;;
5295;SDS011;2670;42.720;23.336;2024-01-30T13:09:55;5.03;;;3.50;;
5295;SDS011;2670;42.720;23.336;2024-01-30T13:12:27;5.37;;;3.73;;
5295;SDS011;2670;42.720;23.336;2024-01-30T13:14:55;5.70;;;3.40;;
5295;SDS011;2670;42.720;23.336;2024-01-30T13:17:22;5.83;;;3.50;;
5295;SDS011;2670;42.720;23.336;2024-01-30T13:19:48;5.17;;;3.50;;
5295;SDS011;2670;42.720;23.336;2024-01-30T13:22:15;6.63;;;3.50;;
5295;SDS011;2670;42.720;23.336;2024-01-30T13:24:42;6.20;;;3.63;;
5295;SDS011;2670;42.720;23.336;2024-01-30T13:27:09;8.77;;;4.50;;
5295;SDS011;2670;42.720;23.336;2024-01-30T13:29:35;11.07;;;4.70;;
5295;SDS011;2670;42.720;23.336;2024-01-30T13:32:03;4.90;;;2.87;;
5295;SDS011;2670;42.720;23.336;2024-01-30T13:34:30;8.93;;;3.90;;
5295;SDS011;2670;42.720;23.336;2024-01-30T13:36:56;5.03;;;3.90;;
5295;SDS011;2670;42.720;23.336;2024-01-30T13:39:23;10.00;;;4.90;;
5295;SDS011;2670;42.720;23.336;2024-01-30T13:41:49;4.87;;;3.83;;
5295;SDS011;2670;42.720;23.336;2024-01-30T13:44:16;5.90;;;4.00;;
5295;SDS011;2670;42.720;23.336;2024-01-30T13:46:43;6.87;;;4.00;;
5295;SDS011;2670;42.720;23.336;2024-01-30T13:49:11;9.70;;;4.60;;
5295;SDS011;2670;42.720;23.336;2024-01-30T13:51:38;7.90;;;4.57;;
5295;SDS011;2670;42.720;23.336;2024-01-30T13:54:04;17.90;;;8.90;;
5295;SDS011;2670;42.720;23.336;2024-01-30T13:56:31;4.33;;;2.87;;
5295;SDS011;2670;42.720;23.336;2024-01-30T13:58:57;25.50;;;10.87;;
5295;SDS011;2670;42.720;23.336;2024-01-30T14:01:25;9.03;;;5.60;;
5295;SDS011;2670;42.720;23.336;2024-01-30T14:03:51;9.10;;;5.30;;
5295;SDS011;2670;42.720;23.336;2024-01-30T14:06:19;10.57;;;4.80;;
5295;SDS011;2670;42.720;23.336;2024-01-30T14:08:46;8.67;;;3.97;;
5295;SDS011;2670;42.720;23.336;2024-01-30T14:11:12;9.03;;;4.77;;
5295;SDS011;2670;42.720;23.336;2024-01-30T14:13:38;7.47;;;4.10;;
5295;SDS011;2670;42.720;23.336;2024-01-30T14:16:05;8.50;;;5.10;;
5295;SDS011;2670;42.720;23.336;2024-01-30T14:18:32;7.10;;;4.30;;
5295;SDS011;2670;42.720;23.336;2024-01-30T14:20:58;7.10;;;4.20;;
5295;SDS011;2670;42.720;23.336;2024-01-30T14:23:26;9.23;;;5.10;;
5295;SDS011;2670;42.720;23.336;2024-01-30T14:25:53;12.53;;;6.00;;
5295;SDS011;2670;42.720;23.336;2024-01-30T14:28:20;9.10;;;5.60;;
5295;SDS011;2670;42.720;23.336;2024-01-30T14:30:46;5.97;;;3.97;;
5295;SDS011;2670;42.720;23.336;2024-01-30T14:33:13;9.43;;;5.30;;
5295;SDS011;2670;42.720;23.336;2024-01-30T14:35:39;9.87;;;4.67;;
5295;SDS011;2670;42.720;23.336;2024-01-30T14:38:06;8.10;;;4.63;;
5295;SDS011;2670;42.720;23.336;2024-01-30T14:40:35;11.97;;;5.40;;
5295;SDS011;2670;42.720;23.336;2024-01-30T14:43:03;17.00;;;7.87;;
5295;SDS011;2670;42.720;23.336;2024-01-30T14:45:29;14.20;;;5.83;;
5295;SDS011;2670;42.720;23.336;2024-01-30T14:47:57;7.87;;;4.40;;
5295;SDS011;2670;42.720;23.336;2024-01-30T14:50:24;5.50;;;3.47;;
5295;SDS011;2670;42.720;23.336;2024-01-30T14:52:50;9.70;;;5.43;;